Time;durP1;ratioP1;P1;durP2;ratioP2;P2;SDS_P1;SDS_P2;PMS_P1;PMS_P2;Temp;Humidity;BMP_temperature;BMP_pressure;BME280_temperature;BME280_humidity;BME280_pressure;Samples;Min_cycle;Max_cycle;Signal;HPM_P1;HPM_P2
2022/10/26 00:00:51;;;;;;;7.88;3.53;;;12.00;99.90;;;;;;5090504;28;20461;-77
2022/10/26 00:03:17;;;;;;;7.07;4.00;;;11.90;99.90;;;;;;5087240;28;20100;-78
2022/10/26 00:05:42;;;;;;;5.78;3.35;;;12.00;99.90;;;;;;5089893;28;20028;-78
2022/10/26 00:08:09;;;;;;;5.97;3.38;;;11.90;99.90;;;;;;5091929;28;20031;-76
2022/10/26 00:10:36;;;;;;;5.78;2.90;;;11.90;99.90;;;;;;5090160;28;20024;-80
2022/10/26 00:13:02;;;;;;;9.38;3.53;;;11.90;99.90;;;;;;5091722;28;20039;-76
2022/10/26 00:15:28;;;;;;;7.75;3.55;;;11.80;99.90;;;;;;5091148;28;20020;-78
2022/10/26 00:17:54;;;;;;;8.98;3.33;;;11.90;99.90;;;;;;5090804;28;20027;-76
2022/10/26 00:20:20;;;;;;;8.40;3.42;;;11.90;99.90;;;;;;5086469;28;20122;-77
2022/10/26 00:22:45;;;;;;;5.25;3.50;;;11.90;99.90;;;;;;5089769;28;20043;-76
2022/10/26 00:25:11;;;;;;;6.72;2.90;;;11.90;99.90;;;;;;5091276;28;20032;-76
2022/10/26 00:27:37;;;;;;;7.13;3.17;;;11.90;99.90;;;;;;5090691;28;20030;-77
2022/10/26 00:30:04;;;;;;;7.55;2.95;;;11.90;99.90;;;;;;5091120;28;20055;-77
2022/10/26 00:32:30;;;;;;;5.00;2.75;;;11.90;99.90;;;;;;5091525;28;20067;-77
2022/10/26 00:34:55;;;;;;;6.93;3.22;;;11.90;99.90;;;;;;5081632;28;20298;-77
2022/10/26 00:37:21;;;;;;;5.50;2.70;;;11.90;99.90;;;;;;5085342;28;20103;-77
2022/10/26 00:39:47;;;;;;;6.60;3.47;;;11.90;99.90;;;;;;5090135;28;20028;-76
2022/10/26 00:42:19;;;;;;;9.68;2.80;;;11.90;99.90;;;;;;5091440;28;20020;-76
2022/10/26 00:44:47;;;;;;;8.45;3.38;;;11.90;99.90;;;;;;5090217;28;20028;-75
2022/10/26 00:47:17;;;;;;;5.47;3.58;;;11.90;99.90;;;;;;5091088;28;20095;-75
2022/10/26 00:49:46;;;;;;;5.82;3.25;;;11.90;99.90;;;;;;5082926;28;20119;-75
2022/10/26 00:52:13;;;;;;;6.13;3.40;;;11.90;99.90;;;;;;5090957;28;20461;-75
2022/10/26 00:54:39;;;;;;;11.15;3.63;;;11.90;99.90;;;;;;5061424;28;20063;-76
2022/10/26 00:57:05;;;;;;;5.28;2.88;;;12.00;99.90;;;;;;5079096;28;20449;-75
2022/10/26 00:59:31;;;;;;;5.53;2.63;;;12.00;99.90;;;;;;5090399;28;20051;-75
2022/10/26 01:01:58;;;;;;;5.65;2.67;;;12.00;99.90;;;;;;5090159;28;20028;-74
2022/10/26 01:04:24;;;;;;;3.85;2.58;;;12.00;99.90;;;;;;5090587;28;20040;-75
2022/10/26 01:06:50;;;;;;;5.60;2.90;;;12.00;99.90;;;;;;5090359;28;20086;-75
2022/10/26 01:09:17;;;;;;;6.72;3.22;;;12.10;99.90;;;;;;5089379;28;20498;-75
2022/10/26 01:11:43;;;;;;;4.45;2.83;;;12.10;99.90;;;;;;5084403;28;20028;-76
2022/10/26 01:14:11;;;;;;;5.75;2.60;;;12.10;99.90;;;;;;5084801;28;20315;-75
2022/10/26 01:16:48;;;;;;;8.10;2.97;;;12.10;99.90;;;;;;5090044;28;20091;-78
2022/10/26 01:19:48;;;;;;;6.93;2.95;;;12.10;99.90;;;;;;5090518;28;20032;-75
2022/10/26 01:22:28;;;;;;;5.22;2.97;;;12.10;99.90;;;;;;5075589;28;20037;-75
2022/10/26 01:25:06;;;;;;;6.95;2.92;;;12.20;99.90;;;;;;5075527;28;20583;-75
2022/10/26 01:27:37;;;;;;;5.75;3.05;;;12.10;99.90;;;;;;5094565;28;20020;-75
2022/10/26 01:30:17;;;;;;;10.05;2.80;;;12.10;99.90;;;;;;5089732;28;20032;-75
2022/10/26 01:32:43;;;;;;;;;;;12.10;99.90;;;;;;5082217;28;20030;-75
2022/10/26 01:35:15;;;;;;;8.48;2.90;;;12.10;99.90;;;;;;5093249;28;19995;-76
2022/10/26 01:38:06;;;;;;;3.80;2.67;;;12.10;99.90;;;;;;5094107;28;20094;-75
2022/10/26 01:40:39;;;;;;;9.35;3.00;;;12.10;99.90;;;;;;5094367;28;20021;-79
2022/10/26 01:43:08;;;;;;;3.40;1.88;;;12.10;99.90;;;;;;5094706;28;20032;-75
2022/10/26 01:45:38;;;;;;;6.85;2.08;;;12.10;99.90;;;;;;5089190;28;20024;-81
2022/10/26 01:48:06;;;;;;;10.27;2.25;;;12.10;99.90;;;;;;5094392;28;20028;-74
2022/10/26 01:50:32;;;;;;;5.97;2.15;;;12.10;99.90;;;;;;5093659;28;20059;-74
2022/10/26 01:52:58;;;;;;;7.07;2.45;;;12.10;99.90;;;;;;5094402;28;20062;-74
2022/10/26 01:55:43;;;;;;;6.85;2.28;;;12.10;99.90;;;;;;5093813;28;20479;-74
2022/10/26 01:58:47;;;;;;;5.90;2.65;;;12.20;99.90;;;;;;5094579;28;20024;-74
2022/10/26 02:01:50;;;;;;;3.63;1.77;;;12.10;99.90;;;;;;5045973;28;20036;-75
2022/10/26 02:04:42;;;;;;;5.35;2.05;;;12.10;99.90;;;;;;5068510;28;20436;-75
2022/10/26 02:07:30;;;;;;;5.13;2.10;;;12.10;99.90;;;;;;5055804;28;20059;-75
2022/10/26 02:10:25;;;;;;;5.85;2.45;;;12.00;99.90;;;;;;5087070;28;20020;-75
2022/10/26 02:12:59;;;;;;;4.53;1.95;;;11.90;99.90;;;;;;5089639;28;20102;-74
2022/10/26 02:15:40;;;;;;;3.08;1.75;;;11.90;99.90;;;;;;5085201;28;20031;-75
2022/10/26 02:18:22;;;;;;;6.25;2.30;;;11.80;99.90;;;;;;5091558;28;20032;-75
2022/10/26 02:20:52;;;;;;;9.25;3.05;;;11.80;99.90;;;;;;5088768;28;20087;-74
2022/10/26 02:23:20;;;;;;;2.85;2.03;;;11.80;99.90;;;;;;5085490;28;20386;-75
2022/10/26 02:25:57;;;;;;;2.78;1.92;;;11.80;99.90;;;;;;5085416;28;20037;-76
2022/10/26 02:28:46;;;;;;;4.28;2.10;;;11.70;99.90;;;;;;5083357;28;20491;-75
2022/10/26 02:31:14;;;;;;;5.07;2.05;;;11.60;99.90;;;;;;5081006;28;20020;-75
2022/10/26 02:33:47;;;;;;;2.80;2.08;;;11.70;99.90;;;;;;5083742;28;20035;-75
2022/10/26 02:36:18;;;;;;;3.60;2.03;;;11.60;99.90;;;;;;5083296;28;20492;-75
2022/10/26 02:38:45;;;;;;;3.60;1.85;;;11.60;99.90;;;;;;5078409;28;20488;-74
2022/10/26 02:41:14;;;;;;;3.78;2.38;;;11.60;99.90;;;;;;5084663;28;20027;-74
2022/10/26 02:43:58;;;;;;;7.40;1.92;;;11.60;99.90;;;;;;5087173;28;20028;-74
2022/10/26 02:46:26;;;;;;;2.65;2.20;;;11.60;99.90;;;;;;5083886;28;20029;-74
2022/10/26 02:48:53;;;;;;;8.55;2.60;;;11.70;99.90;;;;;;5083296;28;20031;-74
2022/10/26 02:51:22;;;;;;;4.88;2.25;;;11.70;99.90;;;;;;5082208;28;20041;-73
2022/10/26 02:54:00;;;;;;;8.95;2.38;;;11.70;99.90;;;;;;5081565;28;20042;-74
2022/10/26 02:56:33;;;;;;;4.00;2.20;;;11.70;99.90;;;;;;5081959;28;20393;-75
2022/10/26 02:59:03;;;;;;;8.15;2.60;;;11.70;99.90;;;;;;5086881;28;20024;-73
2022/10/26 03:01:29;;;;;;;;;;;11.70;99.90;;;;;;5093704;28;20030;-74
2022/10/26 03:03:59;;;;;;;5.15;2.63;;;11.70;99.90;;;;;;5091953;28;19903;-74
2022/10/26 03:06:24;;;;;;;6.93;2.60;;;11.60;99.90;;;;;;5092449;28;20078;-74
2022/10/26 03:08:51;;;;;;;5.30;2.40;;;11.60;99.90;;;;;;5087879;28;20366;-73
2022/10/26 03:11:16;;;;;;;3.88;2.58;;;11.60;99.90;;;;;;5090897;28;20020;-73
2022/10/26 03:13:42;;;;;;;5.72;2.85;;;11.60;99.90;;;;;;5087912;28;20499;-73
2022/10/26 03:16:08;;;;;;;9.27;2.60;;;11.50;99.90;;;;;;5092567;28;20034;-73
2022/10/26 03:18:34;;;;;;;6.25;3.13;;;11.50;99.90;;;;;;5092445;28;20035;-83
2022/10/26 03:20:59;;;;;;;4.28;2.38;;;11.50;99.90;;;;;;5092428;28;20040;-73
2022/10/26 03:23:25;;;;;;;7.63;2.65;;;11.50;99.90;;;;;;5093228;28;20028;-73
2022/10/26 03:25:51;;;;;;;3.67;2.20;;;11.50;99.90;;;;;;5092072;28;20542;-73
2022/10/26 03:28:16;;;;;;;5.32;2.17;;;11.50;99.90;;;;;;5092678;28;20052;-73
2022/10/26 03:30:42;;;;;;;7.47;2.20;;;11.60;99.90;;;;;;5087314;28;20295;-72
2022/10/26 03:33:08;;;;;;;7.82;2.42;;;11.60;99.90;;;;;;5086823;28;20181;-73
2022/10/26 03:35:33;;;;;;;4.20;1.90;;;11.60;99.90;;;;;;5089565;28;20036;-85
2022/10/26 03:37:59;;;;;;;3.85;2.20;;;11.60;99.90;;;;;;5092242;28;20030;-73
2022/10/26 03:40:24;;;;;;;5.78;3.10;;;11.70;99.90;;;;;;5091872;28;20035;-73
2022/10/26 03:42:50;;;;;;;7.15;2.67;;;11.70;99.90;;;;;;5091698;28;20067;-73
2022/10/26 03:45:16;;;;;;;5.38;2.50;;;11.70;99.90;;;;;;5091482;28;20028;-74
2022/10/26 03:47:43;;;;;;;7.47;2.42;;;11.80;99.90;;;;;;5091114;28;20024;-73
2022/10/26 03:50:09;;;;;;;8.30;2.35;;;11.80;99.90;;;;;;5089512;28;20463;-73
2022/10/26 03:52:35;;;;;;;5.95;2.38;;;11.80;99.90;;;;;;5091619;28;20405;-82
2022/10/26 03:55:00;;;;;;;5.53;2.20;;;11.80;99.90;;;;;;5091285;28;20024;-73
2022/10/26 03:57:26;;;;;;;8.75;2.97;;;11.90;99.90;;;;;;5091827;28;20081;-73
2022/10/26 03:59:51;;;;;;;7.97;3.10;;;11.90;99.90;;;;;;5090870;28;20032;-72
2022/10/26 04:02:17;;;;;;;4.72;2.88;;;12.00;99.90;;;;;;5091618;28;20030;-72
2022/10/26 04:04:42;;;;;;;6.47;3.38;;;12.10;99.90;;;;;;5090881;28;20031;-72
2022/10/26 04:07:08;;;;;;;7.07;3.33;;;12.10;99.90;;;;;;5086113;28;20036;-72
2022/10/26 04:09:33;;;;;;;7.82;3.35;;;12.00;99.90;;;;;;5088543;28;20035;-84
2022/10/26 04:11:59;;;;;;;6.45;3.50;;;12.00;99.90;;;;;;5091738;28;20443;-73
2022/10/26 04:14:24;;;;;;;6.50;3.83;;;12.10;99.90;;;;;;5091470;28;20032;-73
2022/10/26 04:16:50;;;;;;;6.25;3.47;;;12.10;99.90;;;;;;5091804;28;20028;-73
2022/10/26 04:19:16;;;;;;;7.53;3.70;;;12.10;99.90;;;;;;5091735;28;20406;-73
2022/10/26 04:21:41;;;;;;;9.95;3.85;;;12.10;99.90;;;;;;5082208;28;20028;-73
2022/10/26 04:24:08;;;;;;;7.10;3.75;;;12.00;99.90;;;;;;5080925;28;20034;-72
2022/10/26 04:26:34;;;;;;;9.07;3.60;;;12.00;99.90;;;;;;5091482;28;20043;-81
2022/10/26 04:28:59;;;;;;;11.10;4.75;;;12.00;99.90;;;;;;5090804;28;20031;-72
2022/10/26 04:31:25;;;;;;;7.80;3.55;;;12.00;99.90;;;;;;5091186;28;20480;-72
2022/10/26 04:33:51;;;;;;;11.98;4.80;;;11.90;99.90;;;;;;5090189;28;20032;-72
2022/10/26 04:36:16;;;;;;;10.43;3.97;;;12.00;99.90;;;;;;5091568;28;20481;-74
2022/10/26 04:38:42;;;;;;;6.47;4.10;;;12.00;99.90;;;;;;5090420;28;20020;-74
2022/10/26 04:41:07;;;;;;;8.27;3.85;;;12.00;99.90;;;;;;5083774;28;20103;-74
2022/10/26 04:43:33;;;;;;;10.10;3.75;;;12.00;99.90;;;;;;5072798;28;20385;-84
2022/10/26 04:45:59;;;;;;;8.07;4.30;;;11.90;99.90;;;;;;5090639;28;20111;-73
2022/10/26 04:48:24;;;;;;;12.07;4.95;;;12.00;99.90;;;;;;5091496;28;20039;-73
2022/10/26 04:50:50;;;;;;;8.70;3.95;;;12.10;99.90;;;;;;5089938;28;20056;-73
2022/10/26 04:53:15;;;;;;;16.77;4.88;;;12.20;99.90;;;;;;5077529;28;20485;-73
2022/10/26 04:55:41;;;;;;;11.85;4.63;;;12.30;99.90;;;;;;5090713;28;20028;-73
2022/10/26 04:58:07;;;;;;;7.95;4.53;;;12.30;99.90;;;;;;5077629;28;20040;-74
2022/10/26 05:00:33;;;;;;;9.35;4.38;;;12.30;99.90;;;;;;5094560;28;20036;-86
2022/10/26 05:03:04;;;;;;;12.57;4.00;;;12.30;99.90;;;;;;5095234;28;20028;-73
2022/10/26 05:05:31;;;;;;;5.50;3.72;;;12.30;99.90;;;;;;5095364;28;20198;-74
2022/10/26 05:07:57;;;;;;;7.82;3.47;;;12.30;99.90;;;;;;5094539;28;20461;-73
2022/10/26 05:10:23;;;;;;;6.93;3.80;;;12.30;99.90;;;;;;5088622;28;20109;-71
2022/10/26 05:12:53;;;;;;;10.20;4.10;;;12.30;99.90;;;;;;5086242;28;20034;-72
2022/10/26 05:15:19;;;;;;;11.20;4.28;;;12.40;99.90;;;;;;5083488;28;20477;-72
2022/10/26 05:17:45;;;;;;;14.50;4.63;;;12.50;99.90;;;;;;5094011;28;20389;-72
2022/10/26 05:20:14;;;;;;;11.18;3.80;;;12.50;99.90;;;;;;5094298;28;20019;-71
2022/10/26 05:22:40;;;;;;;9.20;3.47;;;12.60;99.90;;;;;;5093811;28;20085;-71
2022/10/26 05:25:06;;;;;;;10.77;3.97;;;12.60;99.90;;;;;;5094405;28;20057;-71
2022/10/26 05:27:31;;;;;;;6.63;3.65;;;12.50;99.90;;;;;;5094345;28;20070;-72
2022/10/26 05:29:57;;;;;;;9.02;4.05;;;12.50;99.90;;;;;;5093674;28;20534;-72
2022/10/26 05:32:23;;;;;;;7.47;3.88;;;12.40;99.90;;;;;;5088745;28;20031;-71
2022/10/26 05:34:48;;;;;;;5.90;3.75;;;12.40;99.90;;;;;;5093620;28;20031;-72
2022/10/26 05:37:14;;;;;;;10.25;3.85;;;12.40;99.90;;;;;;5094420;28;20031;-72
2022/10/26 05:39:39;;;;;;;8.63;3.67;;;12.50;99.90;;;;;;5092892;28;20032;-72
2022/10/26 05:42:05;;;;;;;8.55;3.88;;;12.50;99.90;;;;;;5094096;28;20032;-71
2022/10/26 05:44:31;;;;;;;8.63;3.50;;;12.70;99.90;;;;;;5094196;28;20119;-73
2022/10/26 05:46:56;;;;;;;6.55;3.45;;;12.70;99.90;;;;;;5088507;28;20151;-76
2022/10/26 05:49:22;;;;;;;6.97;3.53;;;12.60;99.90;;;;;;5084353;28;20469;-74
2022/10/26 05:51:47;;;;;;;9.10;4.18;;;12.60;99.90;;;;;;5093256;28;20048;-72
2022/10/26 05:54:13;;;;;;;9.43;3.80;;;12.60;99.90;;;;;;5093444;28;20028;-71
2022/10/26 05:56:40;;;;;;;9.65;3.53;;;12.50;99.90;;;;;;5093561;28;20077;-72
2022/10/26 05:59:12;;;;;;;8.60;4.15;;;12.50;99.90;;;;;;5093242;28;20028;-74
2022/10/26 06:01:49;;;;;;;7.20;3.53;;;12.40;99.90;;;;;;5093382;28;20024;-76
2022/10/26 06:04:42;;;;;;;8.35;4.15;;;12.40;99.90;;;;;;5087385;28;20450;-72
2022/10/26 06:07:12;;;;;;;10.40;4.38;;;12.40;99.90;;;;;;5094014;28;20032;-72
2022/10/26 06:09:39;;;;;;;5.32;3.60;;;12.50;99.90;;;;;;5085927;28;20026;-75
2022/10/26 06:12:06;;;;;;;15.20;3.55;;;12.40;99.90;;;;;;5094011;28;20035;-75
2022/10/26 06:14:33;;;;;;;8.65;4.15;;;12.40;99.90;;;;;;5097075;28;20059;-75
2022/10/26 06:17:11;;;;;;;7.43;3.53;;;12.40;99.90;;;;;;5085952;28;20537;-73
2022/10/26 06:19:55;;;;;;;6.85;3.85;;;12.40;99.90;;;;;;5081126;28;20016;-77
2022/10/26 06:22:51;;;;;;;6.53;4.00;;;12.40;99.90;;;;;;5083842;28;20027;-74
2022/10/26 06:25:54;;;;;;;9.25;3.50;;;12.40;99.90;;;;;;5092707;28;20054;-72
2022/10/26 06:28:20;;;;;;;5.70;3.75;;;12.40;99.90;;;;;;5089304;28;20396;-74
2022/10/26 06:30:46;;;;;;;7.25;3.72;;;12.40;99.90;;;;;;5091805;28;20031;-72
2022/10/26 06:33:13;;;;;;;15.68;4.43;;;12.50;99.90;;;;;;5092498;28;20067;-73
2022/10/26 06:35:39;;;;;;;8.57;4.18;;;12.50;99.90;;;;;;5091206;28;20065;-72
2022/10/26 06:38:13;;;;;;;11.93;4.72;;;12.50;99.90;;;;;;5092661;28;20071;-72
2022/10/26 06:40:41;;;;;;;10.05;4.90;;;12.60;99.90;;;;;;5090710;28;20024;-72
2022/10/26 06:43:30;;;;;;;6.25;4.28;;;12.60;99.90;;;;;;5092863;28;20036;-72
2022/10/26 06:46:09;;;;;;;9.18;4.38;;;12.60;99.90;;;;;;5085505;28;20028;-75
2022/10/26 06:48:52;;;;;;;9.10;3.95;;;12.70;99.90;;;;;;5081445;28;20387;-73
2022/10/26 06:51:19;;;;;;;7.80;3.38;;;12.70;99.90;;;;;;5093170;28;20441;-73
2022/10/26 06:53:53;;;;;;;5.75;2.95;;;12.80;99.90;;;;;;5091939;28;20028;-73
2022/10/26 06:56:19;;;;;;;5.57;2.25;;;12.90;99.90;;;;;;5092574;28;20051;-73
2022/10/26 06:58:46;;;;;;;8.15;2.90;;;13.00;99.90;;;;;;5091458;28;20445;-75
2022/10/26 07:01:12;;;;;;;8.15;2.28;;;13.20;99.90;;;;;;5092736;28;20373;-72
2022/10/26 07:03:38;;;;;;;5.75;2.30;;;13.50;99.90;;;;;;5091157;28;20032;-78
2022/10/26 07:06:04;;;;;;;4.93;2.00;;;13.70;99.90;;;;;;5092286;28;20028;-72
2022/10/26 07:08:31;;;;;;;4.50;1.92;;;13.90;99.90;;;;;;5092298;28;20069;-74
2022/10/26 07:10:56;;;;;;;5.60;1.92;;;14.00;99.90;;;;;;5090110;28;20043;-72
2022/10/26 07:13:22;;;;;;;6.55;2.13;;;14.20;99.90;;;;;;5092292;28;20024;-73
2022/10/26 07:15:47;;;;;;;4.65;2.55;;;14.50;99.90;;;;;;5072801;28;20526;-71
2022/10/26 07:18:13;;;;;;;5.63;2.60;;;14.60;99.90;;;;;;5092003;28;20028;-71
2022/10/26 07:20:40;;;;;;;7.53;2.47;;;14.60;99.90;;;;;;5086167;28;20099;-72
2022/10/26 07:23:10;;;;;;;6.20;2.17;;;14.80;99.90;;;;;;5092177;28;20132;-72
2022/10/26 07:25:38;;;;;;;5.20;2.03;;;14.90;99.90;;;;;;5090766;28;20119;-79
2022/10/26 07:28:06;;;;;;;8.88;2.38;;;14.90;99.90;;;;;;5089603;28;20274;-72
2022/10/26 07:30:32;;;;;;;6.28;1.77;;;15.00;99.90;;;;;;5091531;28;20362;-75
2022/10/26 07:33:06;;;;;;;4.10;1.92;;;15.10;99.90;;;;;;5090309;28;20031;-73
2022/10/26 07:35:32;;;;;;;12.15;1.95;;;15.30;99.90;;;;;;5076326;28;20090;-72
2022/10/26 07:37:58;;;;;;;5.18;2.30;;;15.40;99.90;;;;;;5091542;28;20091;-72
2022/10/26 07:40:25;;;;;;;10.00;2.20;;;15.50;99.90;;;;;;5091557;28;20154;-71
2022/10/26 07:42:51;;;;;;;3.95;2.03;;;15.60;99.90;;;;;;5073060;28;20028;-72
2022/10/26 07:45:17;;;;;;;5.57;2.35;;;15.70;99.90;;;;;;5091154;28;20020;-72
2022/10/26 07:47:45;;;;;;;4.43;2.10;;;15.70;99.90;;;;;;5091070;28;20035;-73
2022/10/26 07:50:11;;;;;;;7.88;3.00;;;15.80;99.90;;;;;;5090719;28;20060;-72
2022/10/26 07:52:37;;;;;;;7.18;2.08;;;15.90;99.90;;;;;;5091143;28;20024;-79
2022/10/26 07:55:04;;;;;;;5.40;2.50;;;15.90;99.90;;;;;;5090855;28;20135;-73
2022/10/26 07:57:29;;;;;;;8.35;2.00;;;15.90;99.90;;;;;;5091506;28;20047;-71
2022/10/26 07:59:55;;;;;;;8.32;2.40;;;16.00;99.90;;;;;;5090299;28;20020;-74
2022/10/26 08:02:21;;;;;;;8.45;2.33;;;16.10;99.90;;;;;;5084868;28;20024;-72
2022/10/26 08:04:46;;;;;;;17.20;3.60;;;16.10;99.90;;;;;;5089720;28;20024;-78
2022/10/26 08:07:12;;;;;;;5.70;2.53;;;16.10;99.90;;;;;;5091689;28;20446;-72
2022/10/26 08:09:37;;;;;;;6.10;2.28;;;16.20;99.90;;;;;;5071731;28;20024;-72
2022/10/26 08:12:03;;;;;;;9.07;2.53;;;16.20;99.90;;;;;;5091003;28;20063;-72
2022/10/26 08:14:29;;;;;;;6.88;2.42;;;16.30;99.90;;;;;;5085777;28;20388;-72
2022/10/26 08:16:54;;;;;;;4.97;1.95;;;16.30;99.90;;;;;;5090128;28;20028;-71
2022/10/26 08:19:20;;;;;;;5.93;2.42;;;16.40;99.90;;;;;;5090043;28;20034;-72
2022/10/26 08:21:46;;;;;;;4.55;2.20;;;16.40;99.90;;;;;;5090080;28;20032;-71
2022/10/26 08:24:11;;;;;;;9.30;2.78;;;16.40;99.90;;;;;;5089723;28;20032;-70
2022/10/26 08:26:37;;;;;;;6.07;2.20;;;16.50;99.90;;;;;;5089737;28;20024;-70
2022/10/26 08:29:02;;;;;;;5.53;2.42;;;16.50;99.90;;;;;;5090017;28;20107;-71
2022/10/26 08:31:28;;;;;;;5.53;2.00;;;16.60;99.90;;;;;;5090417;28;20028;-71
2022/10/26 08:33:54;;;;;;;5.13;2.35;;;16.60;99.90;;;;;;5089569;28;20880;-72
2022/10/26 08:36:24;;;;;;;5.97;1.90;;;16.60;99.90;;;;;;5090273;28;20025;-72
2022/10/26 08:38:51;;;;;;;6.40;2.13;;;16.60;99.90;;;;;;5089855;28;20476;-71
2022/10/26 08:41:19;;;;;;;12.43;2.60;;;16.70;99.90;;;;;;5091106;28;20036;-72
2022/10/26 08:43:48;;;;;;;4.95;2.05;;;16.80;99.90;;;;;;5089303;28;20404;-71
2022/10/26 08:46:26;;;;;;;9.57;2.17;;;16.80;99.90;;;;;;5084444;28;20024;-72
2022/10/26 08:48:55;;;;;;;8.10;2.50;;;16.80;99.90;;;;;;5083988;28;20487;-72
2022/10/26 08:51:35;;;;;;;9.07;2.53;;;16.70;99.90;;;;;;5090303;28;20063;-71
2022/10/26 08:54:04;;;;;;;5.38;2.25;;;16.80;99.90;;;;;;5089357;28;20028;-72
2022/10/26 08:56:48;;;;;;;6.18;2.42;;;16.70;99.90;;;;;;5090513;28;20485;-72
2022/10/26 08:59:21;;;;;;;6.63;2.65;;;16.70;99.90;;;;;;5090600;28;20099;-73
2022/10/26 09:01:47;;;;;;;5.55;2.33;;;16.80;99.90;;;;;;5089825;28;20032;-72
2022/10/26 09:04:13;;;;;;;7.03;2.28;;;16.90;99.90;;;;;;5068098;28;20032;-72
2022/10/26 09:06:57;;;;;;;3.50;2.38;;;16.90;99.90;;;;;;5089537;28;20457;-73
2022/10/26 09:09:37;;;;;;;6.55;2.00;;;17.00;99.90;;;;;;5071703;28;20111;-72
2022/10/26 09:12:15;;;;;;;7.07;2.80;;;17.20;99.90;;;;;;5090508;28;20024;-75
2022/10/26 09:14:42;;;;;;;5.28;2.17;;;17.30;99.90;;;;;;5089772;28;20056;-72
2022/10/26 09:17:52;;;;;;;10.57;2.63;;;17.50;99.90;;;;;;5090129;28;20034;-71
2022/10/26 09:20:33;;;;;;;8.98;2.53;;;17.60;99.90;;;;;;5089894;28;20028;-71
2022/10/26 09:23:09;;;;;;;5.45;2.05;;;17.70;99.90;;;;;;5089671;28;20043;-71
2022/10/26 09:25:39;;;;;;;10.98;2.50;;;17.90;99.90;;;;;;5089693;28;20028;-76
2022/10/26 09:28:10;;;;;;;4.25;2.30;;;18.00;99.90;;;;;;5089907;28;20021;-71
2022/10/26 09:30:36;;;;;;;6.63;2.28;;;18.10;99.90;;;;;;5089093;28;20385;-77
2022/10/26 09:33:14;;;;;;;7.85;2.45;;;18.10;99.90;;;;;;5090208;28;20094;-71
2022/10/26 09:36:01;;;;;;;6.68;2.33;;;18.20;99.90;;;;;;5078748;28;20059;-71
2022/10/26 09:38:27;;;;;;;9.40;2.08;;;18.30;99.90;;;;;;5083784;28;20020;-71
2022/10/26 09:41:02;;;;;;;11.55;2.92;;;18.40;99.90;;;;;;5088373;28;20031;-71
2022/10/26 09:43:40;;;;;;;9.77;2.63;;;18.50;99.90;;;;;;5089057;28;20029;-71
2022/10/26 09:46:16;;;;;;;6.93;2.30;;;18.50;99.90;;;;;;5094131;28;20031;-71
2022/10/26 09:48:50;;;;;;;5.40;2.08;;;18.50;99.90;;;;;;5092673;28;20349;-70
2022/10/26 09:51:16;;;;;;;11.25;2.65;;;18.50;99.90;;;;;;5093249;28;20059;-72
2022/10/26 09:53:42;;;;;;;7.97;2.17;;;18.70;99.90;;;;;;5092949;28;20107;-72
2022/10/26 09:56:12;;;;;;;7.43;2.75;;;18.80;99.90;;;;;;5093761;28;20114;-71
2022/10/26 09:58:41;;;;;;;;;;;18.90;99.90;;;;;;5094852;28;20128;-75
2022/10/26 10:01:28;;;;;;;6.55;2.28;;;19.00;99.90;;;;;;5096798;28;19908;-70
2022/10/26 10:04:12;;;;;;;7.32;2.03;;;19.20;99.90;;;;;;5092441;28;20614;-73
2022/10/26 10:06:47;;;;;;;9.82;2.42;;;19.50;99.90;;;;;;5088097;28;20488;-72
2022/10/26 10:09:21;;;;;;;7.85;2.58;;;19.60;99.90;;;;;;5091901;28;20020;-71
2022/10/26 10:11:54;;;;;;;5.72;2.13;;;19.70;99.90;;;;;;5083397;28;20032;-71
2022/10/26 10:14:31;;;;;;;5.55;1.90;;;19.80;99.90;;;;;;5092410;28;20039;-72
2022/10/26 10:17:09;;;;;;;4.80;2.35;;;19.90;99.90;;;;;;5092327;28;20032;-71
2022/10/26 10:19:37;;;;;;;10.52;2.30;;;19.80;99.90;;;;;;5091791;28;20481;-77
2022/10/26 10:22:14;;;;;;;11.18;2.72;;;19.90;99.90;;;;;;5093023;28;20028;-71
2022/10/26 10:25:01;;;;;;;7.25;2.42;;;20.00;99.90;;;;;;5092108;28;20099;-72
2022/10/26 10:27:28;;;;;;;9.18;2.58;;;20.00;99.90;;;;;;5093504;28;20039;-73
2022/10/26 10:29:56;;;;;;;5.55;2.33;;;20.10;99.90;;;;;;5091884;28;20085;-72
2022/10/26 10:32:30;;;;;;;6.63;1.75;;;20.20;99.90;;;;;;5090022;28;20032;-73
2022/10/26 10:34:58;;;;;;;7.35;2.20;;;20.50;99.90;;;;;;5074313;28;20437;-72
2022/10/26 10:37:33;;;;;;;6.05;1.88;;;20.80;99.90;;;;;;5091366;28;20048;-75
2022/10/26 10:40:09;;;;;;;6.55;2.58;;;20.90;99.90;;;;;;5087704;28;20457;-71
2022/10/26 10:42:39;;;;;;;10.45;2.10;;;21.10;99.90;;;;;;5078691;28;20031;-71
2022/10/26 10:45:06;;;;;;;10.52;2.50;;;21.30;99.90;;;;;;5093377;28;20534;-72
2022/10/26 10:47:34;;;;;;;8.43;2.00;;;21.40;99.90;;;;;;5090573;28;20043;-71
2022/10/26 10:50:11;;;;;;;6.85;1.92;;;21.30;99.90;;;;;;5084405;28;20040;-72
2022/10/26 10:52:37;;;;;;;6.03;1.90;;;21.20;99.90;;;;;;5089872;28;20024;-72
2022/10/26 10:55:19;;;;;;;7.32;2.50;;;21.10;99.90;;;;;;5093036;28;20078;-71
2022/10/26 10:57:53;;;;;;;6.55;2.45;;;21.00;99.90;;;;;;5091915;28;20054;-71
2022/10/26 11:00:20;;;;;;;5.78;2.58;;;20.90;99.90;;;;;;5088460;28;20449;-73
2022/10/26 11:03:29;;;;;;;10.80;2.85;;;20.80;99.90;;;;;;5084557;28;20075;-72
2022/10/26 11:06:24;;;;;;;6.65;2.72;;;20.70;99.90;;;;;;5091659;28;20035;-72
2022/10/26 11:08:58;;;;;;;5.65;2.63;;;20.70;99.90;;;;;;5078894;28;20031;-73
2022/10/26 11:11:56;;;;;;;7.28;2.05;;;20.80;99.90;;;;;;5091887;28;20104;-72
2022/10/26 11:14:39;;;;;;;7.57;1.88;;;21.00;99.90;;;;;;5070545;28;20024;-73
2022/10/26 11:17:16;;;;;;;11.00;2.53;;;21.30;99.90;;;;;;5091323;28;20043;-72
2022/10/26 11:20:01;;;;;;;5.60;2.20;;;21.50;99.90;;;;;;5088676;28;20063;-73
2022/10/26 11:22:40;;;;;;;5.72;2.53;;;21.50;99.90;;;;;;5090648;28;20016;-73
2022/10/26 11:25:45;;;;;;;6.22;2.40;;;21.60;99.90;;;;;;5091679;28;20171;-72
2022/10/26 11:28:16;;;;;;;8.27;2.05;;;21.60;99.90;;;;;;5040791;28;20098;-72
2022/10/26 11:30:57;;;;;;;9.23;1.88;;;21.50;99.90;;;;;;5090314;28;20020;-73
2022/10/26 11:33:33;;;;;;;5.82;2.63;;;21.60;99.90;;;;;;5081029;28;20097;-73
2022/10/26 11:36:06;;;;;;;4.65;1.90;;;21.60;99.90;;;;;;5086523;28;20111;-74
2022/10/26 11:38:42;;;;;;;3.63;1.63;;;21.60;99.90;;;;;;5091096;28;20012;-71
2022/10/26 11:41:19;;;;;;;7.63;2.65;;;21.70;99.90;;;;;;5089146;28;20039;-71
2022/10/26 11:43:50;;;;;;;5.10;2.00;;;21.70;99.90;;;;;;5089485;28;20119;-72
2022/10/26 11:46:20;;;;;;;6.43;1.95;;;21.80;99.90;;;;;;5090822;28;20515;-71
2022/10/26 11:48:49;;;;;;;7.13;2.03;;;21.90;99.90;;;;;;5090221;28;20020;-72
2022/10/26 11:51:41;;;;;;;7.05;2.10;;;22.00;99.90;;;;;;5090845;28;20103;-71
2022/10/26 11:54:44;;;;;;;6.88;2.58;;;22.10;99.90;;;;;;5088651;28;20040;-72
2022/10/26 11:57:11;;;;;;;6.47;1.75;;;22.10;99.90;;;;;;5010566;28;20044;-72
2022/10/26 11:59:44;;;;;;;6.63;2.05;;;22.20;99.90;;;;;;5071002;28;20128;-79
2022/10/26 12:02:18;;;;;;;11.57;3.00;;;22.30;99.90;;;;;;5090953;28;20040;-72
2022/10/26 12:04:49;;;;;;;5.07;1.98;;;22.40;99.90;;;;;;5087014;28;20036;-72
2022/10/26 12:07:23;;;;;;;6.72;2.25;;;22.30;99.90;;;;;;5090708;28;20036;-73
2022/10/26 12:09:50;;;;;;;6.70;2.00;;;22.40;99.90;;;;;;5084874;28;20020;-72
2022/10/26 12:12:16;;;;;;;7.72;2.60;;;22.50;99.90;;;;;;5090437;28;20032;-72
2022/10/26 12:15:02;;;;;;;5.63;1.77;;;22.60;99.90;;;;;;5089880;28;20108;-72
2022/10/26 12:18:03;;;;;;;9.73;1.80;;;22.50;99.90;;;;;;5088180;28;20115;-72
2022/10/26 12:20:46;;;;;;;10.43;1.98;;;22.40;99.90;;;;;;5082807;28;20031;-72
2022/10/26 12:23:12;;;;;;;5.65;1.80;;;22.40;99.90;;;;;;5091085;28;20054;-72
2022/10/26 12:25:38;;;;;;;7.50;2.10;;;22.40;99.90;;;;;;5089204;28;20434;-72
2022/10/26 12:28:04;;;;;;;3.53;1.95;;;22.50;99.90;;;;;;5090885;28;20032;-74
2022/10/26 12:30:32;;;;;;;6.25;1.88;;;22.50;99.90;;;;;;5090250;28;20028;-69
2022/10/26 12:33:04;;;;;;;5.25;1.88;;;22.60;99.90;;;;;;5085997;28;20054;-72
2022/10/26 12:35:42;;;;;;;7.93;1.65;;;22.60;99.90;;;;;;5070324;28;20031;-72
2022/10/26 12:38:22;;;;;;;3.33;1.77;;;22.60;99.90;;;;;;5084276;28;20032;-72
2022/10/26 12:41:12;;;;;;;5.55;2.10;;;22.40;99.90;;;;;;5089720;28;20034;-72
2022/10/26 12:43:40;;;;;;;7.63;1.67;;;22.40;99.90;;;;;;5089032;28;20036;-78
2022/10/26 12:46:36;;;;;;;4.75;1.70;;;22.40;99.90;;;;;;5090807;28;20060;-72
2022/10/26 12:49:02;;;;;;;4.82;1.80;;;22.30;99.90;;;;;;5080176;28;20040;-71
2022/10/26 12:51:48;;;;;;;8.90;2.13;;;22.30;99.90;;;;;;5090084;28;20051;-72
2022/10/26 12:54:40;;;;;;;7.28;2.00;;;22.30;99.90;;;;;;5088686;28;20512;-72
2022/10/26 12:57:27;;;;;;;4.28;2.20;;;22.20;99.90;;;;;;5090723;28;20110;-73
2022/10/26 13:00:04;;;;;;;5.30;1.35;;;22.30;99.90;;;;;;5085443;28;20106;-72
2022/10/26 13:03:03;;;;;;;5.40;1.67;;;22.30;99.90;;;;;;5080746;28;20032;-72
2022/10/26 13:05:50;;;;;;;6.65;2.05;;;22.30;99.90;;;;;;5089928;28;20495;-72
2022/10/26 13:08:16;;;;;;;3.47;1.85;;;22.30;99.90;;;;;;5090429;28;20043;-72